sensor_id;sensor_type;location;lat;lon;timestamp;P1;durP1;ratioP1;P2;durP2;ratioP2
37593;SDS011;23441;50.856;6.076;2023-02-26T00:01:15;14.67;;;4.23;;
37593;SDS011;23441;50.856;6.076;2023-02-26T00:03:43;14.90;;;4.83;;
37593;SDS011;23441;50.856;6.076;2023-02-26T00:06:13;12.33;;;4.90;;
37593;SDS011;23441;50.856;6.076;2023-02-26T00:08:38;11.77;;;4.60;;
37593;SDS011;23441;50.856;6.076;2023-02-26T00:11:08;10.70;;;3.77;;
37593;SDS011;23441;50.856;6.076;2023-02-26T00:13:34;12.03;;;4.23;;
37593;SDS011;23441;50.856;6.076;2023-02-26T00:16:01;11.50;;;4.50;;
37593;SDS011;23441;50.856;6.076;2023-02-26T00:18:30;9.23;;;3.67;;
37593;SDS011;23441;50.856;6.076;2023-02-26T00:20:56;6.37;;;3.60;;
37593;SDS011;23441;50.856;6.076;2023-02-26T00:23:22;13.17;;;3.83;;
37593;SDS011;23441;50.856;6.076;2023-02-26T00:25:48;13.53;;;3.43;;
37593;SDS011;23441;50.856;6.076;2023-02-26T00:28:14;9.87;;;3.90;;
37593;SDS011;23441;50.856;6.076;2023-02-26T00:30:40;11.00;;;3.60;;
37593;SDS011;23441;50.856;6.076;2023-02-26T00:33:06;9.50;;;3.40;;
37593;SDS011;23441;50.856;6.076;2023-02-26T00:35:32;11.00;;;3.93;;
37593;SDS011;23441;50.856;6.076;2023-02-26T00:38:02;10.50;;;3.90;;
37593;SDS011;23441;50.856;6.076;2023-02-26T00:42:59;14.07;;;3.60;;
37593;SDS011;23441;50.856;6.076;2023-02-26T00:45:25;11.27;;;4.33;;
37593;SDS011;23441;50.856;6.076;2023-02-26T00:50:23;15.73;;;4.33;;
37593;SDS011;23441;50.856;6.076;2023-02-26T00:55:28;12.60;;;3.67;;
37593;SDS011;23441;50.856;6.076;2023-02-26T00:57:54;9.10;;;3.47;;
37593;SDS011;23441;50.856;6.076;2023-02-26T01:00:20;13.77;;;4.33;;
37593;SDS011;23441;50.856;6.076;2023-02-26T01:02:46;13.17;;;4.40;;
37593;SDS011;23441;50.856;6.076;2023-02-26T01:05:12;10.07;;;3.70;;
37593;SDS011;23441;50.856;6.076;2023-02-26T01:07:41;13.27;;;4.03;;
37593;SDS011;23441;50.856;6.076;2023-02-26T01:10:10;5.93;;;3.37;;
37593;SDS011;23441;50.856;6.076;2023-02-26T01:12:36;7.97;;;3.37;;
37593;SDS011;23441;50.856;6.076;2023-02-26T01:15:03;8.33;;;3.50;;
37593;SDS011;23441;50.856;6.076;2023-02-26T01:18:13;12.67;;;3.70;;
37593;SDS011;23441;50.856;6.076;2023-02-26T01:20:41;8.17;;;3.20;;
37593;SDS011;23441;50.856;6.076;2023-02-26T01:23:16;8.30;;;3.80;;
37593;SDS011;23441;50.856;6.076;2023-02-26T01:25:48;8.53;;;4.23;;
37593;SDS011;23441;50.856;6.076;2023-02-26T01:28:19;8.47;;;3.90;;
37593;SDS011;23441;50.856;6.076;2023-02-26T01:30:45;10.43;;;4.30;;
37593;SDS011;23441;50.856;6.076;2023-02-26T01:35:52;11.10;;;5.20;;
37593;SDS011;23441;50.856;6.076;2023-02-26T01:38:28;14.97;;;4.40;;
37593;SDS011;23441;50.856;6.076;2023-02-26T01:43:34;15.23;;;3.87;;
37593;SDS011;23441;50.856;6.076;2023-02-26T01:46:14;11.40;;;3.60;;
37593;SDS011;23441;50.856;6.076;2023-02-26T01:51:18;7.40;;;3.83;;
37593;SDS011;23441;50.856;6.076;2023-02-26T01:54:14;8.23;;;3.60;;
37593;SDS011;23441;50.856;6.076;2023-02-26T01:56:43;12.00;;;4.00;;
37593;SDS011;23441;50.856;6.076;2023-02-26T01:59:12;19.10;;;4.47;;
37593;SDS011;23441;50.856;6.076;2023-02-26T02:01:39;8.60;;;3.70;;
37593;SDS011;23441;50.856;6.076;2023-02-26T02:04:06;9.90;;;3.70;;
37593;SDS011;23441;50.856;6.076;2023-02-26T02:06:35;8.47;;;4.13;;
37593;SDS011;23441;50.856;6.076;2023-02-26T02:09:03;7.90;;;4.00;;
37593;SDS011;23441;50.856;6.076;2023-02-26T02:11:30;11.93;;;6.80;;
37593;SDS011;23441;50.856;6.076;2023-02-26T02:14:16;14.50;;;7.30;;
37593;SDS011;23441;50.856;6.076;2023-02-26T02:33:26;9.70;;;3.63;;
37593;SDS011;23441;50.856;6.076;2023-02-26T02:35:58;13.50;;;4.13;;
37593;SDS011;23441;50.856;6.076;2023-02-26T02:38:30;6.30;;;3.13;;
37593;SDS011;23441;50.856;6.076;2023-02-26T02:41:00;13.93;;;3.50;;
37593;SDS011;23441;50.856;6.076;2023-02-26T02:43:33;8.83;;;3.40;;
37593;SDS011;23441;50.856;6.076;2023-02-26T02:46:04;11.00;;;3.67;;
37593;SDS011;23441;50.856;6.076;2023-02-26T02:48:35;11.00;;;5.50;;
37593;SDS011;23441;50.856;6.076;2023-02-26T02:51:09;9.43;;;4.63;;
37593;SDS011;23441;50.856;6.076;2023-02-26T02:53:50;12.37;;;5.57;;
37593;SDS011;23441;50.856;6.076;2023-02-26T02:59:10;6.87;;;3.33;;
37593;SDS011;23441;50.856;6.076;2023-02-26T03:01:44;7.07;;;3.33;;
37593;SDS011;23441;50.856;6.076;2023-02-26T03:04:14;10.47;;;3.87;;
37593;SDS011;23441;50.856;6.076;2023-02-26T03:06:41;7.40;;;3.00;;
37593;SDS011;23441;50.856;6.076;2023-02-26T03:09:10;12.00;;;3.57;;
37593;SDS011;23441;50.856;6.076;2023-02-26T03:11:37;8.47;;;3.23;;
37593;SDS011;23441;50.856;6.076;2023-02-26T03:14:03;11.17;;;3.47;;
37593;SDS011;23441;50.856;6.076;2023-02-26T03:16:54;7.60;;;3.23;;
37593;SDS011;23441;50.856;6.076;2023-02-26T03:27:41;6.93;;;2.87;;
37593;SDS011;23441;50.856;6.076;2023-02-26T03:35:37;12.13;;;3.63;;
37593;SDS011;23441;50.856;6.076;2023-02-26T03:38:18;8.77;;;2.77;;
37593;SDS011;23441;50.856;6.076;2023-02-26T03:40:56;3.47;;;2.47;;
37593;SDS011;23441;50.856;6.076;2023-02-26T03:43:38;10.43;;;2.73;;
37593;SDS011;23441;50.856;6.076;2023-02-26T03:46:14;11.03;;;2.77;;
37593;SDS011;23441;50.856;6.076;2023-02-26T03:48:43;13.80;;;4.00;;
37593;SDS011;23441;50.856;6.076;2023-02-26T03:51:11;7.83;;;3.23;;
37593;SDS011;23441;50.856;6.076;2023-02-26T03:53:41;10.40;;;3.10;;
37593;SDS011;23441;50.856;6.076;2023-02-26T03:56:23;11.33;;;4.07;;
37593;SDS011;23441;50.856;6.076;2023-02-26T03:58:55;4.23;;;2.40;;
37593;SDS011;23441;50.856;6.076;2023-02-26T04:01:22;8.63;;;3.30;;
37593;SDS011;23441;50.856;6.076;2023-02-26T04:04:01;3.30;;;3.00;;
37593;SDS011;23441;50.856;6.076;2023-02-26T04:06:31;6.13;;;2.90;;
37593;SDS011;23441;50.856;6.076;2023-02-26T04:08:59;7.17;;;3.67;;
37593;SDS011;23441;50.856;6.076;2023-02-26T04:11:25;6.03;;;3.33;;
37593;SDS011;23441;50.856;6.076;2023-02-26T04:13:51;7.60;;;2.70;;
37593;SDS011;23441;50.856;6.076;2023-02-26T04:16:17;7.90;;;2.50;;
37593;SDS011;23441;50.856;6.076;2023-02-26T04:18:43;3.73;;;2.90;;
37593;SDS011;23441;50.856;6.076;2023-02-26T04:21:12;4.07;;;2.80;;
37593;SDS011;23441;50.856;6.076;2023-02-26T04:23:40;12.03;;;2.90;;
37593;SDS011;23441;50.856;6.076;2023-02-26T04:26:05;7.83;;;3.23;;
37593;SDS011;23441;50.856;6.076;2023-02-26T04:28:31;9.00;;;3.03;;
37593;SDS011;23441;50.856;6.076;2023-02-26T04:30:58;3.67;;;2.43;;
37593;SDS011;23441;50.856;6.076;2023-02-26T04:33:24;5.97;;;2.73;;
37593;SDS011;23441;50.856;6.076;2023-02-26T04:35:51;6.10;;;2.53;;
37593;SDS011;23441;50.856;6.076;2023-02-26T04:38:16;6.20;;;2.67;;
37593;SDS011;23441;50.856;6.076;2023-02-26T04:40:42;3.93;;;2.20;;
37593;SDS011;23441;50.856;6.076;2023-02-26T04:43:08;5.63;;;2.90;;
37593;SDS011;23441;50.856;6.076;2023-02-26T04:45:33;10.13;;;2.63;;
37593;SDS011;23441;50.856;6.076;2023-02-26T04:47:59;9.03;;;2.43;;
37593;SDS011;23441;50.856;6.076;2023-02-26T04:50:25;4.17;;;2.87;;
37593;SDS011;23441;50.856;6.076;2023-02-26T04:52:50;5.67;;;2.67;;
37593;SDS011;23441;50.856;6.076;2023-02-26T04:55:16;6.30;;;2.37;;
37593;SDS011;23441;50.856;6.076;2023-02-26T04:57:42;6.00;;;2.67;;
37593;SDS011;23441;50.856;6.076;2023-02-26T05:00:07;4.10;;;2.13;;
37593;SDS011;23441;50.856;6.076;2023-02-26T05:02:33;8.83;;;2.33;;
37593;SDS011;23441;50.856;6.076;2023-02-26T05:04:59;6.60;;;2.40;;
37593;SDS011;23441;50.856;6.076;2023-02-26T05:07:25;7.80;;;2.37;;
37593;SDS011;23441;50.856;6.076;2023-02-26T05:09:51;8.13;;;2.20;;
37593;SDS011;23441;50.856;6.076;2023-02-26T05:12:16;6.80;;;2.10;;
37593;SDS011;23441;50.856;6.076;2023-02-26T05:14:42;6.70;;;2.20;;
37593;SDS011;23441;50.856;6.076;2023-02-26T05:17:07;4.23;;;2.40;;
37593;SDS011;23441;50.856;6.076;2023-02-26T05:19:33;8.40;;;2.33;;
37593;SDS011;23441;50.856;6.076;2023-02-26T05:21:59;5.50;;;2.00;;
37593;SDS011;23441;50.856;6.076;2023-02-26T05:24:24;8.37;;;2.20;;
37593;SDS011;23441;50.856;6.076;2023-02-26T05:26:50;4.47;;;2.33;;
37593;SDS011;23441;50.856;6.076;2023-02-26T05:29:15;6.47;;;2.07;;
37593;SDS011;23441;50.856;6.076;2023-02-26T05:31:41;2.67;;;1.97;;
37593;SDS011;23441;50.856;6.076;2023-02-26T05:34:07;5.10;;;1.97;;
37593;SDS011;23441;50.856;6.076;2023-02-26T05:36:33;10.13;;;2.43;;
37593;SDS011;23441;50.856;6.076;2023-02-26T05:38:59;7.73;;;2.10;;
37593;SDS011;23441;50.856;6.076;2023-02-26T05:41:24;7.70;;;2.20;;
37593;SDS011;23441;50.856;6.076;2023-02-26T05:43:50;6.70;;;2.30;;
37593;SDS011;23441;50.856;6.076;2023-02-26T05:46:16;10.13;;;2.63;;
37593;SDS011;23441;50.856;6.076;2023-02-26T05:48:41;8.80;;;2.87;;
37593;SDS011;23441;50.856;6.076;2023-02-26T05:51:07;5.10;;;1.80;;
37593;SDS011;23441;50.856;6.076;2023-02-26T05:53:34;6.30;;;2.10;;
37593;SDS011;23441;50.856;6.076;2023-02-26T05:55:59;5.30;;;2.00;;
37593;SDS011;23441;50.856;6.076;2023-02-26T05:58:25;4.70;;;2.20;;
37593;SDS011;23441;50.856;6.076;2023-02-26T06:00:51;5.53;;;2.27;;
37593;SDS011;23441;50.856;6.076;2023-02-26T06:03:16;7.33;;;2.57;;
37593;SDS011;23441;50.856;6.076;2023-02-26T06:05:42;7.57;;;2.77;;
37593;SDS011;23441;50.856;6.076;2023-02-26T06:08:08;10.13;;;2.33;;
37593;SDS011;23441;50.856;6.076;2023-02-26T06:10:36;5.60;;;2.20;;
37593;SDS011;23441;50.856;6.076;2023-02-26T06:13:01;5.53;;;2.53;;
37593;SDS011;23441;50.856;6.076;2023-02-26T06:15:27;4.87;;;1.93;;
37593;SDS011;23441;50.856;6.076;2023-02-26T06:17:53;9.20;;;2.33;;
37593;SDS011;23441;50.856;6.076;2023-02-26T06:20:18;5.70;;;2.00;;
37593;SDS011;23441;50.856;6.076;2023-02-26T06:22:44;9.83;;;3.10;;
37593;SDS011;23441;50.856;6.076;2023-02-26T06:25:10;11.17;;;2.53;;
37593;SDS011;23441;50.856;6.076;2023-02-26T06:27:35;7.93;;;2.23;;
37593;SDS011;23441;50.856;6.076;2023-02-26T06:30:01;5.40;;;2.03;;
37593;SDS011;23441;50.856;6.076;2023-02-26T06:32:27;6.20;;;2.40;;
37593;SDS011;23441;50.856;6.076;2023-02-26T06:34:53;4.77;;;2.07;;
37593;SDS011;23441;50.856;6.076;2023-02-26T06:37:18;10.73;;;2.43;;
37593;SDS011;23441;50.856;6.076;2023-02-26T06:39:44;7.87;;;2.30;;
37593;SDS011;23441;50.856;6.076;2023-02-26T06:42:10;7.10;;;2.17;;
37593;SDS011;23441;50.856;6.076;2023-02-26T06:44:35;6.57;;;2.17;;
37593;SDS011;23441;50.856;6.076;2023-02-26T06:47:01;6.13;;;2.20;;
37593;SDS011;23441;50.856;6.076;2023-02-26T06:49:27;4.67;;;2.57;;
37593;SDS011;23441;50.856;6.076;2023-02-26T06:51:53;6.57;;;2.43;;
37593;SDS011;23441;50.856;6.076;2023-02-26T06:54:18;5.67;;;2.60;;
37593;SDS011;23441;50.856;6.076;2023-02-26T06:56:44;10.93;;;2.30;;
37593;SDS011;23441;50.856;6.076;2023-02-26T06:59:09;6.00;;;1.90;;
37593;SDS011;23441;50.856;6.076;2023-02-26T07:01:35;3.00;;;1.83;;
37593;SDS011;23441;50.856;6.076;2023-02-26T07:04:01;4.53;;;2.13;;
37593;SDS011;23441;50.856;6.076;2023-02-26T07:06:26;4.80;;;1.87;;
37593;SDS011;23441;50.856;6.076;2023-02-26T07:08:52;5.07;;;2.30;;
37593;SDS011;23441;50.856;6.076;2023-02-26T07:11:17;6.63;;;2.10;;
37593;SDS011;23441;50.856;6.076;2023-02-26T07:13:43;3.83;;;2.03;;
37593;SDS011;23441;50.856;6.076;2023-02-26T07:16:09;3.53;;;2.20;;
37593;SDS011;23441;50.856;6.076;2023-02-26T07:18:35;6.13;;;2.10;;
37593;SDS011;23441;50.856;6.076;2023-02-26T07:21:02;5.17;;;2.20;;
37593;SDS011;23441;50.856;6.076;2023-02-26T07:23:28;3.97;;;1.90;;
37593;SDS011;23441;50.856;6.076;2023-02-26T07:25:54;9.53;;;2.47;;
37593;SDS011;23441;50.856;6.076;2023-02-26T07:28:20;6.90;;;2.30;;
37593;SDS011;23441;50.856;6.076;2023-02-26T07:30:46;8.53;;;2.37;;
37593;SDS011;23441;50.856;6.076;2023-02-26T07:33:12;7.00;;;2.23;;
37593;SDS011;23441;50.856;6.076;2023-02-26T07:35:37;7.07;;;2.50;;
37593;SDS011;23441;50.856;6.076;2023-02-26T07:38:03;4.97;;;2.30;;
37593;SDS011;23441;50.856;6.076;2023-02-26T07:40:29;8.13;;;2.70;;
37593;SDS011;23441;50.856;6.076;2023-02-26T07:42:55;6.03;;;2.57;;
37593;SDS011;23441;50.856;6.076;2023-02-26T07:45:20;6.63;;;2.40;;
37593;SDS011;23441;50.856;6.076;2023-02-26T07:47:47;9.43;;;2.50;;
37593;SDS011;23441;50.856;6.076;2023-02-26T07:50:13;7.63;;;2.50;;
37593;SDS011;23441;50.856;6.076;2023-02-26T07:52:39;5.40;;;2.47;;
37593;SDS011;23441;50.856;6.076;2023-02-26T07:55:05;6.67;;;2.60;;
37593;SDS011;23441;50.856;6.076;2023-02-26T07:57:33;6.23;;;2.57;;
37593;SDS011;23441;50.856;6.076;2023-02-26T07:59:58;6.20;;;1.97;;
37593;SDS011;23441;50.856;6.076;2023-02-26T08:02:24;6.07;;;2.20;;
37593;SDS011;23441;50.856;6.076;2023-02-26T08:04:49;5.03;;;2.07;;
37593;SDS011;23441;50.856;6.076;2023-02-26T08:07:15;7.40;;;2.50;;
37593;SDS011;23441;50.856;6.076;2023-02-26T08:09:41;6.20;;;2.00;;
37593;SDS011;23441;50.856;6.076;2023-02-26T08:12:07;6.47;;;2.53;;
37593;SDS011;23441;50.856;6.076;2023-02-26T08:14:32;6.20;;;2.20;;
37593;SDS011;23441;50.856;6.076;2023-02-26T08:16:58;7.23;;;2.27;;
37593;SDS011;23441;50.856;6.076;2023-02-26T08:19:24;7.63;;;2.40;;
37593;SDS011;23441;50.856;6.076;2023-02-26T08:21:49;2.60;;;2.00;;
37593;SDS011;23441;50.856;6.076;2023-02-26T08:24:15;6.63;;;2.23;;
37593;SDS011;23441;50.856;6.076;2023-02-26T08:26:41;4.20;;;2.30;;
37593;SDS011;23441;50.856;6.076;2023-02-26T08:29:07;9.83;;;2.67;;
37593;SDS011;23441;50.856;6.076;2023-02-26T08:31:32;3.77;;;2.20;;
37593;SDS011;23441;50.856;6.076;2023-02-26T08:33:59;8.70;;;2.73;;
37593;SDS011;23441;50.856;6.076;2023-02-26T08:36:25;4.70;;;2.27;;
37593;SDS011;23441;50.856;6.076;2023-02-26T08:38:52;8.40;;;2.60;;
37593;SDS011;23441;50.856;6.076;2023-02-26T08:41:17;7.73;;;2.27;;
37593;SDS011;23441;50.856;6.076;2023-02-26T08:43:43;5.83;;;2.77;;
37593;SDS011;23441;50.856;6.076;2023-02-26T08:46:09;3.93;;;2.00;;
37593;SDS011;23441;50.856;6.076;2023-02-26T08:48:34;3.20;;;2.03;;
37593;SDS011;23441;50.856;6.076;2023-02-26T08:51:00;7.80;;;2.30;;
37593;SDS011;23441;50.856;6.076;2023-02-26T08:53:25;6.33;;;2.80;;
37593;SDS011;23441;50.856;6.076;2023-02-26T08:55:51;5.03;;;2.70;;
37593;SDS011;23441;50.856;6.076;2023-02-26T08:58:17;6.80;;;2.40;;
37593;SDS011;23441;50.856;6.076;2023-02-26T09:00:44;7.17;;;2.33;;
37593;SDS011;23441;50.856;6.076;2023-02-26T09:03:09;7.43;;;2.50;;
37593;SDS011;23441;50.856;6.076;2023-02-26T09:05:35;6.83;;;2.37;;
37593;SDS011;23441;50.856;6.076;2023-02-26T09:08:01;5.00;;;2.20;;
37593;SDS011;23441;50.856;6.076;2023-02-26T09:10:27;4.20;;;2.40;;
37593;SDS011;23441;50.856;6.076;2023-02-26T09:12:53;9.37;;;2.60;;
37593;SDS011;23441;50.856;6.076;2023-02-26T09:15:19;8.20;;;2.37;;
37593;SDS011;23441;50.856;6.076;2023-02-26T09:17:45;3.40;;;2.27;;
37593;SDS011;23441;50.856;6.076;2023-02-26T09:20:12;8.70;;;2.10;;
37593;SDS011;23441;50.856;6.076;2023-02-26T09:22:38;6.60;;;2.33;;
37593;SDS011;23441;50.856;6.076;2023-02-26T09:25:05;5.33;;;2.60;;
37593;SDS011;23441;50.856;6.076;2023-02-26T09:27:31;8.07;;;2.20;;
37593;SDS011;23441;50.856;6.076;2023-02-26T09:29:58;7.57;;;2.07;;
37593;SDS011;23441;50.856;6.076;2023-02-26T09:32:23;8.13;;;2.50;;
37593;SDS011;23441;50.856;6.076;2023-02-26T09:34:51;12.03;;;2.40;;
37593;SDS011;23441;50.856;6.076;2023-02-26T09:37:16;6.50;;;2.70;;
37593;SDS011;23441;50.856;6.076;2023-02-26T09:39:43;5.63;;;2.70;;
37593;SDS011;23441;50.856;6.076;2023-02-26T09:45:37;5.57;;;2.27;;
37593;SDS011;23441;50.856;6.076;2023-02-26T09:48:05;3.67;;;2.10;;
37593;SDS011;23441;50.856;6.076;2023-02-26T09:53:27;4.30;;;2.20;;
37593;SDS011;23441;50.856;6.076;2023-02-26T09:56:15;2.93;;;1.83;;
37593;SDS011;23441;50.856;6.076;2023-02-26T09:58:43;3.50;;;2.03;;
37593;SDS011;23441;50.856;6.076;2023-02-26T10:09:07;6.57;;;1.93;;
37593;SDS011;23441;50.856;6.076;2023-02-26T10:11:46;4.90;;;2.10;;
37593;SDS011;23441;50.856;6.076;2023-02-26T10:14:35;6.57;;;1.40;;
37593;SDS011;23441;50.856;6.076;2023-02-26T10:17:10;5.33;;;2.03;;
37593;SDS011;23441;50.856;6.076;2023-02-26T10:19:43;4.20;;;1.60;;
37593;SDS011;23441;50.856;6.076;2023-02-26T10:22:24;3.73;;;1.97;;
37593;SDS011;23441;50.856;6.076;2023-02-26T10:25:21;2.27;;;1.33;;
37593;SDS011;23441;50.856;6.076;2023-02-26T10:27:57;3.80;;;1.50;;
37593;SDS011;23441;50.856;6.076;2023-02-26T10:33:17;2.07;;;1.70;;
37593;SDS011;23441;50.856;6.076;2023-02-26T10:35:52;1.30;;;1.20;;
37593;SDS011;23441;50.856;6.076;2023-02-26T10:38:26;3.37;;;1.30;;
37593;SDS011;23441;50.856;6.076;2023-02-26T10:40:59;1.60;;;1.50;;
37593;SDS011;23441;50.856;6.076;2023-02-26T10:43:29;2.93;;;1.60;;
37593;SDS011;23441;50.856;6.076;2023-02-26T10:51:35;5.23;;;1.50;;
37593;SDS011;23441;50.856;6.076;2023-02-26T10:54:03;5.07;;;1.67;;
37593;SDS011;23441;50.856;6.076;2023-02-26T10:56:38;1.90;;;1.27;;
37593;SDS011;23441;50.856;6.076;2023-02-26T10:59:04;3.37;;;1.63;;
37593;SDS011;23441;50.856;6.076;2023-02-26T11:01:30;3.40;;;1.60;;
37593;SDS011;23441;50.856;6.076;2023-02-26T11:03:57;6.63;;;1.50;;
37593;SDS011;23441;50.856;6.076;2023-02-26T11:09:13;2.63;;;1.43;;
37593;SDS011;23441;50.856;6.076;2023-02-26T11:12:11;3.60;;;1.60;;
37593;SDS011;23441;50.856;6.076;2023-02-26T11:14:39;4.27;;;1.87;;
37593;SDS011;23441;50.856;6.076;2023-02-26T11:17:09;2.13;;;1.60;;
37593;SDS011;23441;50.856;6.076;2023-02-26T11:20:04;2.60;;;1.10;;
37593;SDS011;23441;50.856;6.076;2023-02-26T11:22:45;5.00;;;1.40;;
37593;SDS011;23441;50.856;6.076;2023-02-26T11:25:17;5.07;;;1.30;;
37593;SDS011;23441;50.856;6.076;2023-02-26T11:27:48;3.93;;;1.60;;
37593;SDS011;23441;50.856;6.076;2023-02-26T11:30:26;4.47;;;1.50;;
37593;SDS011;23441;50.856;6.076;2023-02-26T11:32:57;2.57;;;1.30;;
37593;SDS011;23441;50.856;6.076;2023-02-26T11:35:28;1.57;;;1.33;;
37593;SDS011;23441;50.856;6.076;2023-02-26T11:38:00;5.50;;;1.20;;
37593;SDS011;23441;50.856;6.076;2023-02-26T11:40:30;3.03;;;1.50;;
37593;SDS011;23441;50.856;6.076;2023-02-26T11:43:07;3.57;;;1.43;;
37593;SDS011;23441;50.856;6.076;2023-02-26T11:45:45;2.13;;;1.20;;
37593;SDS011;23441;50.856;6.076;2023-02-26T11:48:19;2.80;;;1.57;;
37593;SDS011;23441;50.856;6.076;2023-02-26T11:50:48;3.50;;;1.33;;
37593;SDS011;23441;50.856;6.076;2023-02-26T11:53:19;4.23;;;1.40;;
37593;SDS011;23441;50.856;6.076;2023-02-26T11:58:39;5.53;;;1.40;;
37593;SDS011;23441;50.856;6.076;2023-02-26T12:01:10;2.37;;;1.40;;
37593;SDS011;23441;50.856;6.076;2023-02-26T12:03:39;2.43;;;1.47;;
37593;SDS011;23441;50.856;6.076;2023-02-26T12:06:14;3.70;;;1.40;;
37593;SDS011;23441;50.856;6.076;2023-02-26T12:08:46;3.30;;;1.30;;
37593;SDS011;23441;50.856;6.076;2023-02-26T12:11:34;1.93;;;1.30;;
37593;SDS011;23441;50.856;6.076;2023-02-26T12:33:31;2.60;;;1.20;;
37593;SDS011;23441;50.856;6.076;2023-02-26T12:36:04;1.67;;;1.20;;
37593;SDS011;23441;50.856;6.076;2023-02-26T12:41:39;2.58;;;1.45;;
37593;SDS011;23441;50.856;6.076;2023-02-26T12:44:22;1.60;;;1.10;;
37593;SDS011;23441;50.856;6.076;2023-02-26T12:47:01;1.60;;;1.10;;
37593;SDS011;23441;50.856;6.076;2023-02-26T12:49:56;3.08;;;1.10;;
37593;SDS011;23441;50.856;6.076;2023-02-26T12:55:19;2.43;;;1.10;;
37593;SDS011;23441;50.856;6.076;2023-02-26T12:57:57;4.13;;;1.40;;
37593;SDS011;23441;50.856;6.076;2023-02-26T13:03:11;1.60;;;1.10;;
37593;SDS011;23441;50.856;6.076;2023-02-26T13:11:29;2.20;;;1.45;;
37593;SDS011;23441;50.856;6.076;2023-02-26T13:19:22;2.72;;;1.50;;
37593;SDS011;23441;50.856;6.076;2023-02-26T13:22:14;3.53;;;1.23;;
37593;SDS011;23441;50.856;6.076;2023-02-26T13:24:50;2.53;;;1.58;;
37593;SDS011;23441;50.856;6.076;2023-02-26T13:27:24;2.30;;;1.50;;
37593;SDS011;23441;50.856;6.076;2023-02-26T13:29:58;2.60;;;1.10;;
37593;SDS011;23441;50.856;6.076;2023-02-26T13:32:25;4.22;;;1.55;;
37593;SDS011;23441;50.856;6.076;2023-02-26T13:34:56;5.03;;;1.25;;
37593;SDS011;23441;50.856;6.076;2023-02-26T13:42:35;1.55;;;1.33;;
37593;SDS011;23441;50.856;6.076;2023-02-26T13:56:13;1.80;;;1.25;;
37593;SDS011;23441;50.856;6.076;2023-02-26T13:58:40;2.75;;;1.30;;
37593;SDS011;23441;50.856;6.076;2023-02-26T14:03:44;2.30;;;1.05;;
37593;SDS011;23441;50.856;6.076;2023-02-26T14:09:14;2.05;;;1.23;;
37593;SDS011;23441;50.856;6.076;2023-02-26T14:11:56;4.40;;;1.67;;
37593;SDS011;23441;50.856;6.076;2023-02-26T14:17:57;2.53;;;1.23;;
37593;SDS011;23441;50.856;6.076;2023-02-26T14:20:28;3.35;;;1.45;;
37593;SDS011;23441;50.856;6.076;2023-02-26T14:23:10;1.98;;;1.35;;
37593;SDS011;23441;50.856;6.076;2023-02-26T14:26:03;2.07;;;1.30;;
37593;SDS011;23441;50.856;6.076;2023-02-26T14:28:42;2.80;;;1.40;;
37593;SDS011;23441;50.856;6.076;2023-02-26T14:31:44;2.90;;;1.20;;
37593;SDS011;23441;50.856;6.076;2023-02-26T14:34:14;2.00;;;1.40;;
37593;SDS011;23441;50.856;6.076;2023-02-26T14:39:41;1.98;;;1.38;;
37593;SDS011;23441;50.856;6.076;2023-02-26T14:42:17;3.73;;;1.40;;
37593;SDS011;23441;50.856;6.076;2023-02-26T14:44:49;3.93;;;1.17;;
37593;SDS011;23441;50.856;6.076;2023-02-26T14:47:19;2.97;;;1.13;;
37593;SDS011;23441;50.856;6.076;2023-02-26T14:49:46;2.23;;;1.20;;
37593;SDS011;23441;50.856;6.076;2023-02-26T14:52:27;1.57;;;1.07;;
37593;SDS011;23441;50.856;6.076;2023-02-26T14:55:17;2.70;;;1.37;;
37593;SDS011;23441;50.856;6.076;2023-02-26T15:03:17;2.53;;;1.30;;
37593;SDS011;23441;50.856;6.076;2023-02-26T15:11:15;2.03;;;1.43;;
37593;SDS011;23441;50.856;6.076;2023-02-26T15:19:20;2.07;;;1.47;;
37593;SDS011;23441;50.856;6.076;2023-02-26T15:24:47;4.23;;;1.50;;
37593;SDS011;23441;50.856;6.076;2023-02-26T15:27:15;3.73;;;1.50;;
37593;SDS011;23441;50.856;6.076;2023-02-26T15:29:43;3.33;;;1.53;;
37593;SDS011;23441;50.856;6.076;2023-02-26T15:32:13;2.13;;;1.43;;
37593;SDS011;23441;50.856;6.076;2023-02-26T15:34:47;4.13;;;1.52;;
37593;SDS011;23441;50.856;6.076;2023-02-26T15:37:21;2.43;;;1.70;;
37593;SDS011;23441;50.856;6.076;2023-02-26T15:39:48;2.07;;;1.80;;
37593;SDS011;23441;50.856;6.076;2023-02-26T15:42:15;4.40;;;2.03;;
37593;SDS011;23441;50.856;6.076;2023-02-26T15:44:43;3.07;;;1.57;;
37593;SDS011;23441;50.856;6.076;2023-02-26T15:47:09;2.80;;;1.57;;
37593;SDS011;23441;50.856;6.076;2023-02-26T15:49:36;2.93;;;1.80;;
37593;SDS011;23441;50.856;6.076;2023-02-26T15:52:05;1.97;;;1.60;;
37593;SDS011;23441;50.856;6.076;2023-02-26T15:54:34;1.70;;;1.60;;
37593;SDS011;23441;50.856;6.076;2023-02-26T15:57:24;2.73;;;1.50;;
37593;SDS011;23441;50.856;6.076;2023-02-26T15:59:53;5.40;;;1.50;;
37593;SDS011;23441;50.856;6.076;2023-02-26T16:02:26;2.37;;;1.53;;
37593;SDS011;23441;50.856;6.076;2023-02-26T16:04:54;3.57;;;1.47;;
37593;SDS011;23441;50.856;6.076;2023-02-26T16:07:20;2.53;;;1.50;;
37593;SDS011;23441;50.856;6.076;2023-02-26T16:09:48;2.93;;;1.70;;
37593;SDS011;23441;50.856;6.076;2023-02-26T16:12:19;2.77;;;1.50;;
37593;SDS011;23441;50.856;6.076;2023-02-26T16:14:54;3.00;;;1.40;;
37593;SDS011;23441;50.856;6.076;2023-02-26T16:17:29;2.90;;;1.60;;
37593;SDS011;23441;50.856;6.076;2023-02-26T16:19:58;3.27;;;2.00;;
37593;SDS011;23441;50.856;6.076;2023-02-26T16:22:31;1.50;;;1.40;;
37593;SDS011;23441;50.856;6.076;2023-02-26T16:25:18;2.03;;;1.40;;
37593;SDS011;23441;50.856;6.076;2023-02-26T16:27:50;2.53;;;1.80;;
37593;SDS011;23441;50.856;6.076;2023-02-26T16:30:23;2.63;;;1.80;;
37593;SDS011;23441;50.856;6.076;2023-02-26T16:32:55;3.57;;;1.57;;
37593;SDS011;23441;50.856;6.076;2023-02-26T16:35:26;3.87;;;1.77;;
37593;SDS011;23441;50.856;6.076;2023-02-26T16:37:58;3.43;;;1.93;;
37593;SDS011;23441;50.856;6.076;2023-02-26T16:40:34;3.87;;;1.80;;
37593;SDS011;23441;50.856;6.076;2023-02-26T16:46:00;4.47;;;2.40;;
37593;SDS011;23441;50.856;6.076;2023-02-26T16:48:39;7.03;;;1.90;;
37593;SDS011;23441;50.856;6.076;2023-02-26T16:51:09;3.60;;;2.00;;
37593;SDS011;23441;50.856;6.076;2023-02-26T16:53:49;5.10;;;2.60;;
37593;SDS011;23441;50.856;6.076;2023-02-26T16:56:26;5.20;;;2.50;;
37593;SDS011;23441;50.856;6.076;2023-02-26T16:59:13;4.20;;;2.40;;
37593;SDS011;23441;50.856;6.076;2023-02-26T17:04:33;1.87;;;1.60;;
37593;SDS011;23441;50.856;6.076;2023-02-26T17:07:00;3.03;;;2.03;;
37593;SDS011;23441;50.856;6.076;2023-02-26T17:09:36;3.17;;;2.00;;
37593;SDS011;23441;50.856;6.076;2023-02-26T17:12:11;7.57;;;2.20;;
37593;SDS011;23441;50.856;6.076;2023-02-26T17:14:41;9.40;;;4.10;;
37593;SDS011;23441;50.856;6.076;2023-02-26T17:17:08;8.73;;;4.17;;
37593;SDS011;23441;50.856;6.076;2023-02-26T17:19:34;4.33;;;2.70;;
37593;SDS011;23441;50.856;6.076;2023-02-26T17:22:00;5.90;;;2.77;;
37593;SDS011;23441;50.856;6.076;2023-02-26T17:24:34;4.03;;;2.60;;
37593;SDS011;23441;50.856;6.076;2023-02-26T17:27:04;3.67;;;2.47;;
37593;SDS011;23441;50.856;6.076;2023-02-26T17:29:31;5.27;;;2.80;;
37593;SDS011;23441;50.856;6.076;2023-02-26T17:32:05;4.87;;;3.00;;
37593;SDS011;23441;50.856;6.076;2023-02-26T17:34:35;5.47;;;3.33;;
37593;SDS011;23441;50.856;6.076;2023-02-26T17:37:00;6.03;;;3.33;;
37593;SDS011;23441;50.856;6.076;2023-02-26T17:39:29;6.47;;;3.50;;
37593;SDS011;23441;50.856;6.076;2023-02-26T17:41:56;8.30;;;4.13;;
37593;SDS011;23441;50.856;6.076;2023-02-26T17:44:21;5.53;;;3.83;;
37593;SDS011;23441;50.856;6.076;2023-02-26T17:46:47;5.03;;;3.00;;
37593;SDS011;23441;50.856;6.076;2023-02-26T17:49:13;7.67;;;3.47;;
37593;SDS011;23441;50.856;6.076;2023-02-26T17:51:39;4.80;;;2.73;;